sensor_id;sensor_type;location;lat;lon;timestamp;temperature;humidity
65836;SHT30;52595;51.608;7.216;2022-07-15T00:02:23;14.32;81.91
65836;SHT30;52595;51.608;7.216;2022-07-15T00:04:48;14.30;81.96
65836;SHT30;52595;51.608;7.216;2022-07-15T00:07:14;14.26;82.09
65836;SHT30;52595;51.608;7.216;2022-07-15T00:09:39;14.25;82.02
65836;SHT30;52595;51.608;7.216;2022-07-15T00:12:23;14.25;81.94
65836;SHT30;52595;51.608;7.216;2022-07-15T00:14:49;14.32;81.81
65836;SHT30;52595;51.608;7.216;2022-07-15T00:17:15;14.33;81.75
65836;SHT30;52595;51.608;7.216;2022-07-15T00:19:41;14.43;81.57
65836;SHT30;52595;51.608;7.216;2022-07-15T00:22:06;14.47;81.49
65836;SHT30;52595;51.608;7.216;2022-07-15T00:24:32;14.56;80.89
65836;SHT30;52595;51.608;7.216;2022-07-15T00:26:57;14.57;81.06
65836;SHT30;52595;51.608;7.216;2022-07-15T00:29:23;14.63;80.75
65836;SHT30;52595;51.608;7.216;2022-07-15T00:31:48;14.63;80.48
65836;SHT30;52595;51.608;7.216;2022-07-15T00:34:14;14.64;80.65
65836;SHT30;52595;51.608;7.216;2022-07-15T00:36:39;14.63;80.51
65836;SHT30;52595;51.608;7.216;2022-07-15T00:39:05;14.64;80.41
65836;SHT30;52595;51.608;7.216;2022-07-15T00:41:42;14.59;80.46
65836;SHT30;52595;51.608;7.216;2022-07-15T00:44:08;14.60;80.50
65836;SHT30;52595;51.608;7.216;2022-07-15T00:46:35;14.60;80.47
65836;SHT30;52595;51.608;7.216;2022-07-15T00:49:02;14.62;80.68
65836;SHT30;52595;51.608;7.216;2022-07-15T00:51:36;14.56;80.66
65836;SHT30;52595;51.608;7.216;2022-07-15T00:54:07;14.56;80.78
65836;SHT30;52595;51.608;7.216;2022-07-15T00:56:38;14.47;81.03
65836;SHT30;52595;51.608;7.216;2022-07-15T00:59:05;14.43;81.14
65836;SHT30;52595;51.608;7.216;2022-07-15T01:01:33;14.37;81.35
65836;SHT30;52595;51.608;7.216;2022-07-15T01:03:59;14.34;81.38
65836;SHT30;52595;51.608;7.216;2022-07-15T01:06:26;14.36;81.47
65836;SHT30;52595;51.608;7.216;2022-07-15T01:08:53;14.33;81.53
65836;SHT30;52595;51.608;7.216;2022-07-15T01:11:18;14.30;81.36
65836;SHT30;52595;51.608;7.216;2022-07-15T01:13:44;14.22;81.95
65836;SHT30;52595;51.608;7.216;2022-07-15T01:16:10;14.12;82.22
65836;SHT30;52595;51.608;7.216;2022-07-15T01:18:35;14.06;82.30
65836;SHT30;52595;51.608;7.216;2022-07-15T01:21:01;13.99;82.66
65836;SHT30;52595;51.608;7.216;2022-07-15T01:23:26;13.94;82.74
65836;SHT30;52595;51.608;7.216;2022-07-15T01:25:52;13.88;83.08
65836;SHT30;52595;51.608;7.216;2022-07-15T01:28:18;13.82;83.32
65836;SHT30;52595;51.608;7.216;2022-07-15T01:30:44;13.72;83.59
65836;SHT30;52595;51.608;7.216;2022-07-15T01:33:10;13.65;84.01
65836;SHT30;52595;51.608;7.216;2022-07-15T01:35:35;13.58;84.06
65836;SHT30;52595;51.608;7.216;2022-07-15T01:38:00;13.50;84.42
65836;SHT30;52595;51.608;7.216;2022-07-15T01:40:26;13.57;84.01
65836;SHT30;52595;51.608;7.216;2022-07-15T01:42:51;13.47;84.36
65836;SHT30;52595;51.608;7.216;2022-07-15T01:45:17;13.38;84.83
65836;SHT30;52595;51.608;7.216;2022-07-15T01:47:44;13.37;84.95
65836;SHT30;52595;51.608;7.216;2022-07-15T01:50:10;13.27;85.33
65836;SHT30;52595;51.608;7.216;2022-07-15T01:52:36;13.23;85.56
65836;SHT30;52595;51.608;7.216;2022-07-15T01:55:03;13.15;85.85
65836;SHT30;52595;51.608;7.216;2022-07-15T01:57:28;13.08;86.26
65836;SHT30;52595;51.608;7.216;2022-07-15T01:59:54;13.10;86.13
65836;SHT30;52595;51.608;7.216;2022-07-15T02:02:19;13.07;86.08
65836;SHT30;52595;51.608;7.216;2022-07-15T02:04:45;13.00;86.35
65836;SHT30;52595;51.608;7.216;2022-07-15T02:07:10;13.00;86.39
65836;SHT30;52595;51.608;7.216;2022-07-15T02:09:36;12.90;86.66
65836;SHT30;52595;51.608;7.216;2022-07-15T02:12:01;12.87;86.97
65836;SHT30;52595;51.608;7.216;2022-07-15T02:14:27;12.82;87.29
65836;SHT30;52595;51.608;7.216;2022-07-15T02:16:52;12.76;87.44
65836;SHT30;52595;51.608;7.216;2022-07-15T02:19:17;12.75;87.55
65836;SHT30;52595;51.608;7.216;2022-07-15T02:21:43;12.67;87.84
65836;SHT30;52595;51.608;7.216;2022-07-15T02:24:08;12.67;87.91
65836;SHT30;52595;51.608;7.216;2022-07-15T02:26:34;12.64;87.95
65836;SHT30;52595;51.608;7.216;2022-07-15T02:29:00;12.57;88.16
65836;SHT30;52595;51.608;7.216;2022-07-15T02:31:25;12.56;88.27
65836;SHT30;52595;51.608;7.216;2022-07-15T02:33:51;12.49;88.52
65836;SHT30;52595;51.608;7.216;2022-07-15T02:36:16;12.45;88.57
65836;SHT30;52595;51.608;7.216;2022-07-15T02:38:42;12.42;88.81
65836;SHT30;52595;51.608;7.216;2022-07-15T02:41:08;12.35;88.95
65836;SHT30;52595;51.608;7.216;2022-07-15T02:43:34;12.36;89.10
65836;SHT30;52595;51.608;7.216;2022-07-15T02:46:01;12.35;89.07
65836;SHT30;52595;51.608;7.216;2022-07-15T02:48:27;12.26;89.25
65836;SHT30;52595;51.608;7.216;2022-07-15T02:50:53;12.26;89.30
65836;SHT30;52595;51.608;7.216;2022-07-15T02:53:18;12.18;89.55
65836;SHT30;52595;51.608;7.216;2022-07-15T02:55:47;12.17;89.65
65836;SHT30;52595;51.608;7.216;2022-07-15T02:58:13;12.14;89.66
65836;SHT30;52595;51.608;7.216;2022-07-15T03:00:38;12.06;89.86
65836;SHT30;52595;51.608;7.216;2022-07-15T03:03:04;12.05;89.96
65836;SHT30;52595;51.608;7.216;2022-07-15T03:05:29;12.12;89.57
65836;SHT30;52595;51.608;7.216;2022-07-15T03:07:55;12.05;89.84
65836;SHT30;52595;51.608;7.216;2022-07-15T03:10:20;12.11;89.71
65836;SHT30;52595;51.608;7.216;2022-07-15T03:12:45;12.11;89.69
65836;SHT30;52595;51.608;7.216;2022-07-15T03:15:11;12.06;89.87
65836;SHT30;52595;51.608;7.216;2022-07-15T03:17:39;12.05;89.89
65836;SHT30;52595;51.608;7.216;2022-07-15T03:20:09;12.01;90.05
65836;SHT30;52595;51.608;7.216;2022-07-15T03:22:35;12.04;89.91
65836;SHT30;52595;51.608;7.216;2022-07-15T03:25:00;12.01;90.01
65836;SHT30;52595;51.608;7.216;2022-07-15T03:27:26;12.06;89.76
65836;SHT30;52595;51.608;7.216;2022-07-15T03:29:51;11.95;90.01
65836;SHT30;52595;51.608;7.216;2022-07-15T03:32:17;11.94;90.15
65836;SHT30;52595;51.608;7.216;2022-07-15T03:34:45;11.94;90.16
65836;SHT30;52595;51.608;7.216;2022-07-15T03:37:11;11.98;90.04
65836;SHT30;52595;51.608;7.216;2022-07-15T03:39:36;12.04;89.91
65836;SHT30;52595;51.608;7.216;2022-07-15T03:42:02;12.06;89.80
65836;SHT30;52595;51.608;7.216;2022-07-15T03:44:27;12.11;89.66
65836;SHT30;52595;51.608;7.216;2022-07-15T03:46:53;12.15;89.32
65836;SHT30;52595;51.608;7.216;2022-07-15T03:49:19;12.11;89.46
65836;SHT30;52595;51.608;7.216;2022-07-15T03:51:44;12.06;89.81
65836;SHT30;52595;51.608;7.216;2022-07-15T03:54:10;12.06;89.93
65836;SHT30;52595;51.608;7.216;2022-07-15T03:56:35;12.05;89.90
65836;SHT30;52595;51.608;7.216;2022-07-15T03:59:02;12.11;89.70
65836;SHT30;52595;51.608;7.216;2022-07-15T04:01:28;12.04;89.85
65836;SHT30;52595;51.608;7.216;2022-07-15T04:03:53;12.01;90.01
65836;SHT30;52595;51.608;7.216;2022-07-15T04:06:20;12.11;89.68
65836;SHT30;52595;51.608;7.216;2022-07-15T04:08:46;12.11;89.64
65836;SHT30;52595;51.608;7.216;2022-07-15T04:11:12;12.09;89.80
65836;SHT30;52595;51.608;7.216;2022-07-15T04:13:38;12.02;89.98
65836;SHT30;52595;51.608;7.216;2022-07-15T04:16:05;11.97;90.22
65836;SHT30;52595;51.608;7.216;2022-07-15T04:18:31;12.04;90.17
65836;SHT30;52595;51.608;7.216;2022-07-15T04:20:56;12.06;90.01
65836;SHT30;52595;51.608;7.216;2022-07-15T04:23:21;12.09;89.94
65836;SHT30;52595;51.608;7.216;2022-07-15T04:25:48;12.14;89.71
65836;SHT30;52595;51.608;7.216;2022-07-15T04:28:17;12.19;89.59
65836;SHT30;52595;51.608;7.216;2022-07-15T04:30:43;12.21;89.39
65836;SHT30;52595;51.608;7.216;2022-07-15T04:33:09;12.26;89.20
65836;SHT30;52595;51.608;7.216;2022-07-15T04:35:34;12.29;89.02
65836;SHT30;52595;51.608;7.216;2022-07-15T04:38:00;12.32;88.99
65836;SHT30;52595;51.608;7.216;2022-07-15T04:40:25;12.33;88.90
65836;SHT30;52595;51.608;7.216;2022-07-15T04:42:51;12.43;88.64
65836;SHT30;52595;51.608;7.216;2022-07-15T04:45:16;12.53;88.11
65836;SHT30;52595;51.608;7.216;2022-07-15T04:47:41;12.59;88.00
65836;SHT30;52595;51.608;7.216;2022-07-15T04:50:07;12.66;87.64
65836;SHT30;52595;51.608;7.216;2022-07-15T04:52:51;12.69;87.44
65836;SHT30;52595;51.608;7.216;2022-07-15T04:55:17;12.73;87.48
65836;SHT30;52595;51.608;7.216;2022-07-15T04:57:42;12.75;87.40
65836;SHT30;52595;51.608;7.216;2022-07-15T05:00:09;12.79;87.30
65836;SHT30;52595;51.608;7.216;2022-07-15T05:02:35;12.77;87.20
65836;SHT30;52595;51.608;7.216;2022-07-15T05:05:00;12.84;86.90
65836;SHT30;52595;51.608;7.216;2022-07-15T05:07:26;12.96;86.38
65836;SHT30;52595;51.608;7.216;2022-07-15T05:09:51;13.06;85.73
65836;SHT30;52595;51.608;7.216;2022-07-15T05:12:17;13.13;85.37
65836;SHT30;52595;51.608;7.216;2022-07-15T05:14:42;13.18;84.90
65836;SHT30;52595;51.608;7.216;2022-07-15T05:17:08;13.33;84.10
65836;SHT30;52595;51.608;7.216;2022-07-15T05:19:34;13.35;84.31
65836;SHT30;52595;51.608;7.216;2022-07-15T05:22:00;13.44;83.50
65836;SHT30;52595;51.608;7.216;2022-07-15T05:24:25;13.45;83.58
65836;SHT30;52595;51.608;7.216;2022-07-15T05:26:51;13.57;83.04
65836;SHT30;52595;51.608;7.216;2022-07-15T05:29:16;13.62;82.74
65836;SHT30;52595;51.608;7.216;2022-07-15T05:31:42;13.61;82.68
65836;SHT30;52595;51.608;7.216;2022-07-15T05:34:08;13.68;82.31
65836;SHT30;52595;51.608;7.216;2022-07-15T05:36:33;13.69;82.23
65836;SHT30;52595;51.608;7.216;2022-07-15T05:38:58;13.75;82.15
65836;SHT30;52595;51.608;7.216;2022-07-15T05:41:24;13.78;81.87
65836;SHT30;52595;51.608;7.216;2022-07-15T05:43:50;13.77;81.76
65836;SHT30;52595;51.608;7.216;2022-07-15T05:46:15;13.78;81.49
65836;SHT30;52595;51.608;7.216;2022-07-15T05:48:41;13.83;81.23
65836;SHT30;52595;51.608;7.216;2022-07-15T05:51:07;13.90;81.23
65836;SHT30;52595;51.608;7.216;2022-07-15T05:53:33;13.97;80.20
65836;SHT30;52595;51.608;7.216;2022-07-15T05:55:59;13.98;79.43
65836;SHT30;52595;51.608;7.216;2022-07-15T05:58:24;13.99;78.23
65836;SHT30;52595;51.608;7.216;2022-07-15T06:00:50;14.09;78.88
65836;SHT30;52595;51.608;7.216;2022-07-15T06:03:16;14.18;78.63
65836;SHT30;52595;51.608;7.216;2022-07-15T06:05:42;14.25;77.84
65836;SHT30;52595;51.608;7.216;2022-07-15T06:08:07;14.37;78.05
65836;SHT30;52595;51.608;7.216;2022-07-15T06:10:33;14.52;76.57
65836;SHT30;52595;51.608;7.216;2022-07-15T06:12:59;14.79;76.59
65836;SHT30;52595;51.608;7.216;2022-07-15T06:15:24;15.04;75.31
65836;SHT30;52595;51.608;7.216;2022-07-15T06:17:50;15.35;74.51
65836;SHT30;52595;51.608;7.216;2022-07-15T06:20:17;15.52;72.95
65836;SHT30;52595;51.608;7.216;2022-07-15T06:22:42;15.79;71.44
65836;SHT30;52595;51.608;7.216;2022-07-15T06:25:08;15.75;72.15
65836;SHT30;52595;51.608;7.216;2022-07-15T06:27:34;15.73;70.58
65836;SHT30;52595;51.608;7.216;2022-07-15T06:30:00;16.00;70.41
65836;SHT30;52595;51.608;7.216;2022-07-15T06:32:25;15.98;70.85
65836;SHT30;52595;51.608;7.216;2022-07-15T06:34:51;16.08;69.34
65836;SHT30;52595;51.608;7.216;2022-07-15T06:37:16;15.99;70.03
65836;SHT30;52595;51.608;7.216;2022-07-15T06:39:42;15.92;70.29
65836;SHT30;52595;51.608;7.216;2022-07-15T06:42:08;16.12;71.07
65836;SHT30;52595;51.608;7.216;2022-07-15T06:44:33;16.08;71.73
65836;SHT30;52595;51.608;7.216;2022-07-15T06:46:59;16.10;72.01
65836;SHT30;52595;51.608;7.216;2022-07-15T06:49:24;15.95;70.82
65836;SHT30;52595;51.608;7.216;2022-07-15T06:51:50;16.06;70.21
65836;SHT30;52595;51.608;7.216;2022-07-15T06:54:16;16.09;69.24
65836;SHT30;52595;51.608;7.216;2022-07-15T06:56:43;16.32;69.30
65836;SHT30;52595;51.608;7.216;2022-07-15T06:59:09;16.46;68.86
65836;SHT30;52595;51.608;7.216;2022-07-15T07:01:34;16.57;68.75
65836;SHT30;52595;51.608;7.216;2022-07-15T07:04:00;16.40;67.97
65836;SHT30;52595;51.608;7.216;2022-07-15T07:06:26;16.50;67.84
65836;SHT30;52595;51.608;7.216;2022-07-15T07:08:52;16.77;66.47
65836;SHT30;52595;51.608;7.216;2022-07-15T07:11:18;16.77;66.61
65836;SHT30;52595;51.608;7.216;2022-07-15T07:13:44;17.22;65.74
65836;SHT30;52595;51.608;7.216;2022-07-15T07:16:10;16.92;66.02
65836;SHT30;52595;51.608;7.216;2022-07-15T07:18:36;17.14;65.68
65836;SHT30;52595;51.608;7.216;2022-07-15T07:21:01;17.19;65.37
65836;SHT30;52595;51.608;7.216;2022-07-15T07:23:27;17.08;65.75
65836;SHT30;52595;51.608;7.216;2022-07-15T07:25:53;17.14;66.61
65836;SHT30;52595;51.608;7.216;2022-07-15T07:28:19;17.17;66.42
65836;SHT30;52595;51.608;7.216;2022-07-15T07:30:45;17.19;65.72
65836;SHT30;52595;51.608;7.216;2022-07-15T07:33:11;17.22;64.80
65836;SHT30;52595;51.608;7.216;2022-07-15T07:35:37;17.39;64.68
65836;SHT30;52595;51.608;7.216;2022-07-15T07:38:02;17.04;65.91
65836;SHT30;52595;51.608;7.216;2022-07-15T07:40:28;17.07;65.28
65836;SHT30;52595;51.608;7.216;2022-07-15T07:42:53;17.04;65.61
65836;SHT30;52595;51.608;7.216;2022-07-15T07:45:21;16.97;66.69
65836;SHT30;52595;51.608;7.216;2022-07-15T07:47:47;16.63;67.51
65836;SHT30;52595;51.608;7.216;2022-07-15T07:50:12;16.92;66.85
65836;SHT30;52595;51.608;7.216;2022-07-15T07:52:37;17.21;66.04
65836;SHT30;52595;51.608;7.216;2022-07-15T07:55:03;17.42;65.47
65836;SHT30;52595;51.608;7.216;2022-07-15T07:57:29;17.38;65.04
65836;SHT30;52595;51.608;7.216;2022-07-15T07:59:54;17.12;65.76
65836;SHT30;52595;51.608;7.216;2022-07-15T08:02:19;17.10;65.64
65836;SHT30;52595;51.608;7.216;2022-07-15T08:04:45;17.42;65.40
65836;SHT30;52595;51.608;7.216;2022-07-15T08:07:10;17.63;64.46
65836;SHT30;52595;51.608;7.216;2022-07-15T08:09:37;17.50;64.55
65836;SHT30;52595;51.608;7.216;2022-07-15T08:12:03;17.56;64.25
65836;SHT30;52595;51.608;7.216;2022-07-15T08:14:28;17.32;63.92
65836;SHT30;52595;51.608;7.216;2022-07-15T08:16:54;17.18;65.12
65836;SHT30;52595;51.608;7.216;2022-07-15T08:19:19;17.43;65.05
65836;SHT30;52595;51.608;7.216;2022-07-15T08:21:45;17.21;65.25
65836;SHT30;52595;51.608;7.216;2022-07-15T08:24:11;17.48;65.10
65836;SHT30;52595;51.608;7.216;2022-07-15T08:26:37;17.87;64.05
65836;SHT30;52595;51.608;7.216;2022-07-15T08:29:03;18.07;62.32
65836;SHT30;52595;51.608;7.216;2022-07-15T08:31:30;18.27;61.17
65836;SHT30;52595;51.608;7.216;2022-07-15T08:33:55;18.13;60.90
65836;SHT30;52595;51.608;7.216;2022-07-15T08:36:21;18.14;61.42
65836;SHT30;52595;51.608;7.216;2022-07-15T08:38:47;18.50;60.61
65836;SHT30;52595;51.608;7.216;2022-07-15T08:41:14;18.71;59.76
65836;SHT30;52595;51.608;7.216;2022-07-15T08:43:40;18.41;59.80
65836;SHT30;52595;51.608;7.216;2022-07-15T08:46:06;18.14;59.60
65836;SHT30;52595;51.608;7.216;2022-07-15T08:48:35;18.38;59.58
65836;SHT30;52595;51.608;7.216;2022-07-15T08:51:04;18.95;57.51
65836;SHT30;52595;51.608;7.216;2022-07-15T08:53:30;19.49;56.84
65836;SHT30;52595;51.608;7.216;2022-07-15T08:55:57;19.09;57.78
65836;SHT30;52595;51.608;7.216;2022-07-15T08:58:22;18.99;57.92
65836;SHT30;52595;51.608;7.216;2022-07-15T09:00:48;18.91;59.06
65836;SHT30;52595;51.608;7.216;2022-07-15T09:03:14;19.08;57.94
65836;SHT30;52595;51.608;7.216;2022-07-15T09:05:40;19.05;57.46
65836;SHT30;52595;51.608;7.216;2022-07-15T09:08:14;18.88;57.34
65836;SHT30;52595;51.608;7.216;2022-07-15T09:10:51;18.55;58.16
65836;SHT30;52595;51.608;7.216;2022-07-15T09:13:31;18.33;59.99
65836;SHT30;52595;51.608;7.216;2022-07-15T09:16:01;18.61;60.18
65836;SHT30;52595;51.608;7.216;2022-07-15T09:18:29;19.04;59.20
65836;SHT30;52595;51.608;7.216;2022-07-15T09:20:56;19.45;57.44
65836;SHT30;52595;51.608;7.216;2022-07-15T09:23:24;19.62;54.31
65836;SHT30;52595;51.608;7.216;2022-07-15T09:26:21;19.66;53.66
65836;SHT30;52595;51.608;7.216;2022-07-15T09:28:45;19.48;54.56
65836;SHT30;52595;51.608;7.216;2022-07-15T09:31:11;19.36;56.22
65836;SHT30;52595;51.608;7.216;2022-07-15T09:34:06;19.67;55.11
65836;SHT30;52595;51.608;7.216;2022-07-15T09:36:32;19.94;53.92
65836;SHT30;52595;51.608;7.216;2022-07-15T09:39:00;19.83;53.16
65836;SHT30;52595;51.608;7.216;2022-07-15T09:41:33;20.24;53.34
65836;SHT30;52595;51.608;7.216;2022-07-15T09:44:06;19.62;55.22
65836;SHT30;52595;51.608;7.216;2022-07-15T09:49:30;19.79;54.02
65836;SHT30;52595;51.608;7.216;2022-07-15T09:52:09;20.38;53.12
65836;SHT30;52595;51.608;7.216;2022-07-15T09:54:53;20.75;51.99
65836;SHT30;52595;51.608;7.216;2022-07-15T09:57:19;20.54;51.84
65836;SHT30;52595;51.608;7.216;2022-07-15T09:59:48;20.44;51.59
65836;SHT30;52595;51.608;7.216;2022-07-15T10:02:15;20.30;52.40
65836;SHT30;52595;51.608;7.216;2022-07-15T10:04:41;20.27;51.21
65836;SHT30;52595;51.608;7.216;2022-07-15T10:07:09;19.63;52.42
65836;SHT30;52595;51.608;7.216;2022-07-15T10:09:36;20.18;51.02
65836;SHT30;52595;51.608;7.216;2022-07-15T10:12:09;20.37;50.54
65836;SHT30;52595;51.608;7.216;2022-07-15T10:28:20;19.69;53.24
65836;SHT30;52595;51.608;7.216;2022-07-15T10:33:38;20.07;52.22
65836;SHT30;52595;51.608;7.216;2022-07-15T10:36:04;19.87;52.81
65836;SHT30;52595;51.608;7.216;2022-07-15T10:43:49;20.78;50.89
65836;SHT30;52595;51.608;7.216;2022-07-15T10:46:20;20.79;50.85
65836;SHT30;52595;51.608;7.216;2022-07-15T10:48:48;20.81;51.33
65836;SHT30;52595;51.608;7.216;2022-07-15T10:51:44;21.56;49.86
65836;SHT30;52595;51.608;7.216;2022-07-15T10:56:58;21.03;51.29
65836;SHT30;52595;51.608;7.216;2022-07-15T10:59:26;21.06;51.47
65836;SHT30;52595;51.608;7.216;2022-07-15T11:04:30;20.86;52.08
65836;SHT30;52595;51.608;7.216;2022-07-15T11:10:12;21.49;49.86
65836;SHT30;52595;51.608;7.216;2022-07-15T11:15:15;21.79;47.59
65836;SHT30;52595;51.608;7.216;2022-07-15T11:17:51;21.46;47.27
65836;SHT30;52595;51.608;7.216;2022-07-15T11:20:19;21.50;47.08
65836;SHT30;52595;51.608;7.216;2022-07-15T11:22:47;22.75;44.89
65836;SHT30;52595;51.608;7.216;2022-07-15T11:28:13;24.61;41.91
65836;SHT30;52595;51.608;7.216;2022-07-15T11:30:45;25.37;41.41
65836;SHT30;52595;51.608;7.216;2022-07-15T11:33:16;23.26;45.10
65836;SHT30;52595;51.608;7.216;2022-07-15T11:35:47;22.31;45.61
65836;SHT30;52595;51.608;7.216;2022-07-15T11:38:13;23.05;44.61
65836;SHT30;52595;51.608;7.216;2022-07-15T11:40:48;24.49;40.99
65836;SHT30;52595;51.608;7.216;2022-07-15T11:43:32;25.53;39.67
65836;SHT30;52595;51.608;7.216;2022-07-15T11:46:17;26.00;39.61
65836;SHT30;52595;51.608;7.216;2022-07-15T11:48:42;25.73;39.09
65836;SHT30;52595;51.608;7.216;2022-07-15T11:51:09;25.94;37.89
65836;SHT30;52595;51.608;7.216;2022-07-15T11:53:37;23.64;40.50
65836;SHT30;52595;51.608;7.216;2022-07-15T11:56:04;22.88;42.31
65836;SHT30;52595;51.608;7.216;2022-07-15T11:58:36;22.85;41.25
65836;SHT30;52595;51.608;7.216;2022-07-15T12:01:25;23.73;40.07
65836;SHT30;52595;51.608;7.216;2022-07-15T12:03:54;23.29;42.65
65836;SHT30;52595;51.608;7.216;2022-07-15T12:06:23;23.09;42.53
65836;SHT30;52595;51.608;7.216;2022-07-15T12:13:54;21.87;45.70
65836;SHT30;52595;51.608;7.216;2022-07-15T12:16:29;21.83;44.83
65836;SHT30;52595;51.608;7.216;2022-07-15T12:18:58;21.26;45.58
65836;SHT30;52595;51.608;7.216;2022-07-15T12:21:24;21.49;46.06
65836;SHT30;52595;51.608;7.216;2022-07-15T12:23:58;21.97;45.92
65836;SHT30;52595;51.608;7.216;2022-07-15T12:26:24;21.84;46.32
65836;SHT30;52595;51.608;7.216;2022-07-15T12:28:55;22.24;45.67
65836;SHT30;52595;51.608;7.216;2022-07-15T12:31:28;22.71;45.05
65836;SHT30;52595;51.608;7.216;2022-07-15T12:33:54;23.09;43.75
65836;SHT30;52595;51.608;7.216;2022-07-15T12:36:22;25.27;39.68
65836;SHT30;52595;51.608;7.216;2022-07-15T12:39:08;26.24;37.85
65836;SHT30;52595;51.608;7.216;2022-07-15T12:41:38;24.98;38.45
65836;SHT30;52595;51.608;7.216;2022-07-15T12:44:04;24.62;38.49
65836;SHT30;52595;51.608;7.216;2022-07-15T12:54:37;23.02;41.47
65836;SHT30;52595;51.608;7.216;2022-07-15T12:57:03;22.94;41.55
65836;SHT30;52595;51.608;7.216;2022-07-15T12:59:28;23.12;42.05
65836;SHT30;52595;51.608;7.216;2022-07-15T13:02:03;23.42;41.18
65836;SHT30;52595;51.608;7.216;2022-07-15T13:04:29;22.82;42.53
65836;SHT30;52595;51.608;7.216;2022-07-15T13:06:54;22.89;41.23
65836;SHT30;52595;51.608;7.216;2022-07-15T13:09:20;23.24;41.31
65836;SHT30;52595;51.608;7.216;2022-07-15T13:11:56;25.03;38.72
65836;SHT30;52595;51.608;7.216;2022-07-15T13:14:22;25.41;36.91
65836;SHT30;52595;51.608;7.216;2022-07-15T13:16:47;25.95;35.82
65836;SHT30;52595;51.608;7.216;2022-07-15T13:19:13;26.41;35.14
65836;SHT30;52595;51.608;7.216;2022-07-15T13:21:38;25.27;37.03
65836;SHT30;52595;51.608;7.216;2022-07-15T13:24:03;25.12;37.35
65836;SHT30;52595;51.608;7.216;2022-07-15T13:26:29;25.23;38.02
65836;SHT30;52595;51.608;7.216;2022-07-15T13:28:54;24.71;38.58
65836;SHT30;52595;51.608;7.216;2022-07-15T13:31:20;24.24;39.24
65836;SHT30;52595;51.608;7.216;2022-07-15T13:33:45;23.85;39.69
65836;SHT30;52595;51.608;7.216;2022-07-15T13:36:10;23.93;39.58
65836;SHT30;52595;51.608;7.216;2022-07-15T13:38:36;24.14;39.65
65836;SHT30;52595;51.608;7.216;2022-07-15T13:41:01;24.41;39.72
65836;SHT30;52595;51.608;7.216;2022-07-15T13:43:26;24.80;38.48
65836;SHT30;52595;51.608;7.216;2022-07-15T13:45:52;23.67;39.91
65836;SHT30;52595;51.608;7.216;2022-07-15T13:48:17;23.83;40.81
65836;SHT30;52595;51.608;7.216;2022-07-15T13:50:43;24.04;40.48
65836;SHT30;52595;51.608;7.216;2022-07-15T13:53:27;23.66;40.59
65836;SHT30;52595;51.608;7.216;2022-07-15T13:55:52;23.15;41.80
65836;SHT30;52595;51.608;7.216;2022-07-15T13:58:17;23.09;41.37
65836;SHT30;52595;51.608;7.216;2022-07-15T14:00:43;24.88;37.63
65836;SHT30;52595;51.608;7.216;2022-07-15T14:03:09;24.73;38.90
65836;SHT30;52595;51.608;7.216;2022-07-15T14:05:34;27.03;35.89
65836;SHT30;52595;51.608;7.216;2022-07-15T14:08:00;26.35;35.50
65836;SHT30;52595;51.608;7.216;2022-07-15T14:10:25;24.61;38.27
65836;SHT30;52595;51.608;7.216;2022-07-15T14:12:51;24.08;39.59
65836;SHT30;52595;51.608;7.216;2022-07-15T14:15:17;23.73;39.96
65836;SHT30;52595;51.608;7.216;2022-07-15T14:17:42;23.13;40.90
65836;SHT30;52595;51.608;7.216;2022-07-15T14:20:08;23.61;41.06
65836;SHT30;52595;51.608;7.216;2022-07-15T14:22:34;23.46;39.84
65836;SHT30;52595;51.608;7.216;2022-07-15T14:25:00;23.33;40.68
65836;SHT30;52595;51.608;7.216;2022-07-15T14:27:26;24.10;40.51
65836;SHT30;52595;51.608;7.216;2022-07-15T14:29:51;26.45;36.97
65836;SHT30;52595;51.608;7.216;2022-07-15T14:32:16;26.28;36.16
65836;SHT30;52595;51.608;7.216;2022-07-15T14:34:42;25.81;36.81
65836;SHT30;52595;51.608;7.216;2022-07-15T14:37:07;25.02;37.69
65836;SHT30;52595;51.608;7.216;2022-07-15T14:39:33;25.95;37.30
65836;SHT30;52595;51.608;7.216;2022-07-15T14:41:58;25.03;37.68
65836;SHT30;52595;51.608;7.216;2022-07-15T14:44:23;24.64;38.46
65836;SHT30;52595;51.608;7.216;2022-07-15T14:46:49;24.80;40.25
65836;SHT30;52595;51.608;7.216;2022-07-15T14:49:14;25.39;38.16
65836;SHT30;52595;51.608;7.216;2022-07-15T14:51:40;24.10;39.81
65836;SHT30;52595;51.608;7.216;2022-07-15T14:54:05;24.89;38.67
65836;SHT30;52595;51.608;7.216;2022-07-15T14:56:30;23.54;40.91
65836;SHT30;52595;51.608;7.216;2022-07-15T14:58:56;23.91;40.46
65836;SHT30;52595;51.608;7.216;2022-07-15T15:01:21;23.49;41.45
65836;SHT30;52595;51.608;7.216;2022-07-15T15:03:47;23.69;40.50
65836;SHT30;52595;51.608;7.216;2022-07-15T15:06:12;23.59;41.14
65836;SHT30;52595;51.608;7.216;2022-07-15T15:08:37;23.43;41.25
65836;SHT30;52595;51.608;7.216;2022-07-15T15:11:03;23.97;40.65
65836;SHT30;52595;51.608;7.216;2022-07-15T15:13:30;23.15;41.73
65836;SHT30;52595;51.608;7.216;2022-07-15T15:15:56;23.02;42.34
65836;SHT30;52595;51.608;7.216;2022-07-15T15:18:21;22.73;42.48
65836;SHT30;52595;51.608;7.216;2022-07-15T15:20:47;22.99;42.34
65836;SHT30;52595;51.608;7.216;2022-07-15T15:23:12;23.36;41.74
65836;SHT30;52595;51.608;7.216;2022-07-15T15:25:37;23.38;41.76
65836;SHT30;52595;51.608;7.216;2022-07-15T15:28:21;23.20;41.88
65836;SHT30;52595;51.608;7.216;2022-07-15T15:30:47;23.42;41.78
65836;SHT30;52595;51.608;7.216;2022-07-15T15:33:12;23.47;40.91
65836;SHT30;52595;51.608;7.216;2022-07-15T15:35:38;23.39;40.94
65836;SHT30;52595;51.608;7.216;2022-07-15T15:38:03;23.30;40.90
65836;SHT30;52595;51.608;7.216;2022-07-15T15:40:29;23.59;40.47
65836;SHT30;52595;51.608;7.216;2022-07-15T15:42:54;23.29;41.05
65836;SHT30;52595;51.608;7.216;2022-07-15T15:45:20;24.55;40.13
65836;SHT30;52595;51.608;7.216;2022-07-15T15:47:45;26.14;37.82
65836;SHT30;52595;51.608;7.216;2022-07-15T15:50:11;25.66;36.49
65836;SHT30;52595;51.608;7.216;2022-07-15T15:52:36;24.38;38.08
65836;SHT30;52595;51.608;7.216;2022-07-15T15:55:02;24.85;38.12
65836;SHT30;52595;51.608;7.216;2022-07-15T15:57:28;24.95;38.31
65836;SHT30;52595;51.608;7.216;2022-07-15T15:59:53;24.72;38.24
65836;SHT30;52595;51.608;7.216;2022-07-15T16:02:19;24.04;39.95
65836;SHT30;52595;51.608;7.216;2022-07-15T16:04:44;24.38;39.27
65836;SHT30;52595;51.608;7.216;2022-07-15T16:07:10;23.93;39.24
65836;SHT30;52595;51.608;7.216;2022-07-15T16:09:35;24.26;38.24
65836;SHT30;52595;51.608;7.216;2022-07-15T16:12:00;24.92;38.18
65836;SHT30;52595;51.608;7.216;2022-07-15T16:14:26;25.78;36.54
65836;SHT30;52595;51.608;7.216;2022-07-15T16:16:52;28.01;33.70
65836;SHT30;52595;51.608;7.216;2022-07-15T16:19:18;28.95;32.27
65836;SHT30;52595;51.608;7.216;2022-07-15T16:21:43;26.11;36.14